sensor_id;sensor_type;location;lat;lon;timestamp;P1;durP1;ratioP1;P2;durP2;ratioP2
75035;SDS011;64247;51.540;5.854;2023-04-03T00:01:37;6.57;;;3.58;;
75035;SDS011;64247;51.540;5.854;2023-04-03T00:03:39;7.03;;;3.85;;
75035;SDS011;64247;51.540;5.854;2023-04-03T00:05:41;4.20;;;3.58;;
75035;SDS011;64247;51.540;5.854;2023-04-03T00:07:42;9.23;;;3.70;;
75035;SDS011;64247;51.540;5.854;2023-04-03T00:09:43;4.40;;;3.67;;
75035;SDS011;64247;51.540;5.854;2023-04-03T00:11:45;5.45;;;4.00;;
75035;SDS011;64247;51.540;5.854;2023-04-03T00:13:46;4.82;;;3.45;;
75035;SDS011;64247;51.540;5.854;2023-04-03T00:15:46;6.07;;;4.43;;
75035;SDS011;64247;51.540;5.854;2023-04-03T00:17:47;5.60;;;4.10;;
75035;SDS011;64247;51.540;5.854;2023-04-03T00:19:48;5.63;;;3.70;;
75035;SDS011;64247;51.540;5.854;2023-04-03T00:21:49;5.65;;;4.03;;
75035;SDS011;64247;51.540;5.854;2023-04-03T00:23:50;6.30;;;5.15;;
75035;SDS011;64247;51.540;5.854;2023-04-03T00:25:52;7.43;;;4.63;;
75035;SDS011;64247;51.540;5.854;2023-04-03T00:27:53;8.15;;;4.88;;
75035;SDS011;64247;51.540;5.854;2023-04-03T00:29:54;6.68;;;4.28;;
75035;SDS011;64247;51.540;5.854;2023-04-03T00:31:56;8.02;;;5.60;;
75035;SDS011;64247;51.540;5.854;2023-04-03T00:33:57;9.38;;;4.43;;
75035;SDS011;64247;51.540;5.854;2023-04-03T00:35:58;4.68;;;3.53;;
75035;SDS011;64247;51.540;5.854;2023-04-03T00:37:59;7.70;;;4.40;;
75035;SDS011;64247;51.540;5.854;2023-04-03T00:40:01;9.57;;;3.72;;
75035;SDS011;64247;51.540;5.854;2023-04-03T00:42:03;4.60;;;3.45;;
75035;SDS011;64247;51.540;5.854;2023-04-03T00:47:05;7.22;;;4.22;;
75035;SDS011;64247;51.540;5.854;2023-04-03T00:49:10;6.47;;;4.03;;
75035;SDS011;64247;51.540;5.854;2023-04-03T00:51:16;7.85;;;3.85;;
75035;SDS011;64247;51.540;5.854;2023-04-03T00:53:25;6.55;;;3.53;;
75035;SDS011;64247;51.540;5.854;2023-04-03T00:55:42;7.50;;;4.18;;
75035;SDS011;64247;51.540;5.854;2023-04-03T00:57:44;4.45;;;4.03;;
75035;SDS011;64247;51.540;5.854;2023-04-03T00:59:49;4.25;;;3.58;;
75035;SDS011;64247;51.540;5.854;2023-04-03T01:01:57;5.30;;;4.13;;
75035;SDS011;64247;51.540;5.854;2023-04-03T01:04:03;5.57;;;4.32;;
75035;SDS011;64247;51.540;5.854;2023-04-03T01:06:06;4.90;;;3.97;;
75035;SDS011;64247;51.540;5.854;2023-04-03T01:08:08;6.68;;;4.63;;
75035;SDS011;64247;51.540;5.854;2023-04-03T01:12:31;4.93;;;4.35;;
75035;SDS011;64247;51.540;5.854;2023-04-03T01:14:40;6.45;;;4.00;;
75035;SDS011;64247;51.540;5.854;2023-04-03T01:16:40;8.43;;;4.88;;
75035;SDS011;64247;51.540;5.854;2023-04-03T01:18:41;7.07;;;4.80;;
75035;SDS011;64247;51.540;5.854;2023-04-03T01:23:58;12.48;;;4.90;;
75035;SDS011;64247;51.540;5.854;2023-04-03T01:26:27;7.95;;;4.55;;
75035;SDS011;64247;51.540;5.854;2023-04-03T01:28:30;6.60;;;4.35;;
75035;SDS011;64247;51.540;5.854;2023-04-03T01:30:35;5.60;;;4.32;;
75035;SDS011;64247;51.540;5.854;2023-04-03T01:33:18;7.43;;;4.30;;
75035;SDS011;64247;51.540;5.854;2023-04-03T01:35:21;6.97;;;4.82;;
75035;SDS011;64247;51.540;5.854;2023-04-03T01:37:23;5.85;;;4.20;;
75035;SDS011;64247;51.540;5.854;2023-04-03T01:39:24;9.13;;;3.78;;
75035;SDS011;64247;51.540;5.854;2023-04-03T01:41:26;8.13;;;4.63;;
75035;SDS011;64247;51.540;5.854;2023-04-03T01:43:33;6.45;;;4.40;;
75035;SDS011;64247;51.540;5.854;2023-04-03T01:45:34;5.70;;;4.63;;
75035;SDS011;64247;51.540;5.854;2023-04-03T01:47:35;9.05;;;4.03;;
75035;SDS011;64247;51.540;5.854;2023-04-03T01:49:36;7.28;;;4.07;;
75035;SDS011;64247;51.540;5.854;2023-04-03T01:53:38;5.38;;;3.75;;
75035;SDS011;64247;51.540;5.854;2023-04-03T01:55:39;6.45;;;3.42;;
75035;SDS011;64247;51.540;5.854;2023-04-03T01:57:40;6.35;;;3.78;;
75035;SDS011;64247;51.540;5.854;2023-04-03T01:59:41;6.28;;;3.97;;
75035;SDS011;64247;51.540;5.854;2023-04-03T02:01:43;6.70;;;4.60;;
75035;SDS011;64247;51.540;5.854;2023-04-03T02:03:45;6.85;;;3.88;;
75035;SDS011;64247;51.540;5.854;2023-04-03T02:05:46;5.05;;;3.88;;
75035;SDS011;64247;51.540;5.854;2023-04-03T02:07:48;7.18;;;3.88;;
75035;SDS011;64247;51.540;5.854;2023-04-03T02:09:49;5.63;;;3.58;;
75035;SDS011;64247;51.540;5.854;2023-04-03T02:11:50;5.80;;;3.35;;
75035;SDS011;64247;51.540;5.854;2023-04-03T02:13:51;5.97;;;4.13;;
75035;SDS011;64247;51.540;5.854;2023-04-03T02:15:52;8.23;;;4.38;;
75035;SDS011;64247;51.540;5.854;2023-04-03T02:17:53;12.55;;;5.20;;
75035;SDS011;64247;51.540;5.854;2023-04-03T02:19:55;6.70;;;4.55;;
75035;SDS011;64247;51.540;5.854;2023-04-03T02:21:57;7.78;;;4.68;;
75035;SDS011;64247;51.540;5.854;2023-04-03T02:23:57;8.63;;;5.25;;
75035;SDS011;64247;51.540;5.854;2023-04-03T02:26:17;8.23;;;4.53;;
75035;SDS011;64247;51.540;5.854;2023-04-03T02:28:19;6.88;;;4.32;;
75035;SDS011;64247;51.540;5.854;2023-04-03T02:30:20;6.55;;;4.90;;
75035;SDS011;64247;51.540;5.854;2023-04-03T02:32:21;5.20;;;4.13;;
75035;SDS011;64247;51.540;5.854;2023-04-03T02:34:22;8.32;;;4.68;;
75035;SDS011;64247;51.540;5.854;2023-04-03T02:36:24;5.88;;;4.28;;
75035;SDS011;64247;51.540;5.854;2023-04-03T02:38:29;7.70;;;4.63;;
75035;SDS011;64247;51.540;5.854;2023-04-03T02:42:31;5.47;;;3.95;;
75035;SDS011;64247;51.540;5.854;2023-04-03T02:44:32;10.65;;;4.13;;
75035;SDS011;64247;51.540;5.854;2023-04-03T02:46:33;9.07;;;4.53;;
75035;SDS011;64247;51.540;5.854;2023-04-03T02:48:34;6.63;;;3.78;;
75035;SDS011;64247;51.540;5.854;2023-04-03T02:50:35;9.25;;;4.50;;
75035;SDS011;64247;51.540;5.854;2023-04-03T02:52:36;4.47;;;3.45;;
75035;SDS011;64247;51.540;5.854;2023-04-03T02:54:37;7.30;;;3.90;;
75035;SDS011;64247;51.540;5.854;2023-04-03T02:56:41;6.28;;;4.43;;
75035;SDS011;64247;51.540;5.854;2023-04-03T02:58:42;6.50;;;3.70;;
75035;SDS011;64247;51.540;5.854;2023-04-03T03:00:44;7.88;;;3.92;;
75035;SDS011;64247;51.540;5.854;2023-04-03T03:04:46;6.35;;;3.78;;
75035;SDS011;64247;51.540;5.854;2023-04-03T03:06:47;5.93;;;3.40;;
75035;SDS011;64247;51.540;5.854;2023-04-03T03:10:49;7.10;;;3.47;;
75035;SDS011;64247;51.540;5.854;2023-04-03T03:12:51;10.52;;;4.28;;
75035;SDS011;64247;51.540;5.854;2023-04-03T03:14:52;12.43;;;3.83;;
75035;SDS011;64247;51.540;5.854;2023-04-03T03:16:53;8.48;;;3.78;;
75035;SDS011;64247;51.540;5.854;2023-04-03T03:18:54;8.27;;;4.18;;
75035;SDS011;64247;51.540;5.854;2023-04-03T03:20:56;6.20;;;3.75;;
75035;SDS011;64247;51.540;5.854;2023-04-03T03:23:00;6.90;;;3.95;;
75035;SDS011;64247;51.540;5.854;2023-04-03T03:25:01;9.77;;;3.63;;
75035;SDS011;64247;51.540;5.854;2023-04-03T03:27:03;6.30;;;3.40;;
75035;SDS011;64247;51.540;5.854;2023-04-03T03:31:06;8.23;;;3.85;;
75035;SDS011;64247;51.540;5.854;2023-04-03T03:33:11;3.40;;;3.05;;
75035;SDS011;64247;51.540;5.854;2023-04-03T03:35:12;4.05;;;2.90;;
75035;SDS011;64247;51.540;5.854;2023-04-03T03:37:13;5.40;;;4.03;;
75035;SDS011;64247;51.540;5.854;2023-04-03T03:39:14;6.82;;;3.75;;
75035;SDS011;64247;51.540;5.854;2023-04-03T03:41:15;12.38;;;4.07;;
75035;SDS011;64247;51.540;5.854;2023-04-03T03:43:18;4.65;;;3.03;;
75035;SDS011;64247;51.540;5.854;2023-04-03T03:45:21;3.80;;;3.45;;
75035;SDS011;64247;51.540;5.854;2023-04-03T03:47:22;8.70;;;3.42;;
75035;SDS011;64247;51.540;5.854;2023-04-03T03:51:23;6.70;;;3.13;;
75035;SDS011;64247;51.540;5.854;2023-04-03T03:53:25;5.18;;;3.38;;
75035;SDS011;64247;51.540;5.854;2023-04-03T03:55:29;5.25;;;3.47;;
75035;SDS011;64247;51.540;5.854;2023-04-03T03:57:32;9.05;;;3.60;;
75035;SDS011;64247;51.540;5.854;2023-04-03T03:59:33;6.28;;;3.50;;
75035;SDS011;64247;51.540;5.854;2023-04-03T04:01:34;6.25;;;3.22;;
75035;SDS011;64247;51.540;5.854;2023-04-03T04:03:35;4.80;;;3.25;;
75035;SDS011;64247;51.540;5.854;2023-04-03T04:05:37;7.53;;;3.80;;
75035;SDS011;64247;51.540;5.854;2023-04-03T04:07:38;4.65;;;3.35;;
75035;SDS011;64247;51.540;5.854;2023-04-03T04:09:40;8.13;;;3.25;;
75035;SDS011;64247;51.540;5.854;2023-04-03T04:11:42;8.13;;;3.70;;
75035;SDS011;64247;51.540;5.854;2023-04-03T04:13:46;5.38;;;2.40;;
75035;SDS011;64247;51.540;5.854;2023-04-03T04:15:48;6.05;;;3.15;;
75035;SDS011;64247;51.540;5.854;2023-04-03T04:17:50;6.90;;;2.83;;
75035;SDS011;64247;51.540;5.854;2023-04-03T04:19:52;4.30;;;2.72;;
75035;SDS011;64247;51.540;5.854;2023-04-03T04:21:53;6.25;;;3.42;;
75035;SDS011;64247;51.540;5.854;2023-04-03T04:23:54;5.40;;;3.10;;
75035;SDS011;64247;51.540;5.854;2023-04-03T04:25:55;5.63;;;3.25;;
75035;SDS011;64247;51.540;5.854;2023-04-03T04:27:57;3.75;;;2.55;;
75035;SDS011;64247;51.540;5.854;2023-04-03T04:29:58;3.50;;;2.63;;
75035;SDS011;64247;51.540;5.854;2023-04-03T04:32:02;4.40;;;2.75;;
75035;SDS011;64247;51.540;5.854;2023-04-03T04:34:05;7.25;;;2.83;;
75035;SDS011;64247;51.540;5.854;2023-04-03T04:36:07;5.55;;;2.30;;
75035;SDS011;64247;51.540;5.854;2023-04-03T04:38:09;5.47;;;2.45;;
75035;SDS011;64247;51.540;5.854;2023-04-03T04:40:11;3.85;;;2.25;;
75035;SDS011;64247;51.540;5.854;2023-04-03T04:42:13;9.35;;;2.88;;
75035;SDS011;64247;51.540;5.854;2023-04-03T04:44:14;13.95;;;3.92;;
75035;SDS011;64247;51.540;5.854;2023-04-03T04:46:16;5.43;;;2.70;;
75035;SDS011;64247;51.540;5.854;2023-04-03T04:48:23;10.68;;;2.83;;
75035;SDS011;64247;51.540;5.854;2023-04-03T04:50:24;5.32;;;3.33;;
75035;SDS011;64247;51.540;5.854;2023-04-03T04:54:26;3.42;;;2.17;;
75035;SDS011;64247;51.540;5.854;2023-04-03T04:56:27;7.45;;;2.95;;
75035;SDS011;64247;51.540;5.854;2023-04-03T04:58:30;12.70;;;2.80;;
75035;SDS011;64247;51.540;5.854;2023-04-03T05:00:32;3.47;;;1.77;;
75035;SDS011;64247;51.540;5.854;2023-04-03T05:02:33;7.85;;;2.00;;
75035;SDS011;64247;51.540;5.854;2023-04-03T05:04:34;11.18;;;2.72;;
75035;SDS011;64247;51.540;5.854;2023-04-03T05:06:41;10.27;;;2.78;;
75035;SDS011;64247;51.540;5.854;2023-04-03T05:08:47;3.78;;;2.10;;
75035;SDS011;64247;51.540;5.854;2023-04-03T05:10:48;5.45;;;3.05;;
75035;SDS011;64247;51.540;5.854;2023-04-03T05:12:50;14.32;;;3.03;;
75035;SDS011;64247;51.540;5.854;2023-04-03T05:16:52;5.10;;;2.25;;
75035;SDS011;64247;51.540;5.854;2023-04-03T05:18:55;9.43;;;2.20;;
75035;SDS011;64247;51.540;5.854;2023-04-03T05:20:57;9.98;;;2.63;;
75035;SDS011;64247;51.540;5.854;2023-04-03T05:22:59;8.88;;;2.97;;
75035;SDS011;64247;51.540;5.854;2023-04-03T05:25:00;5.03;;;1.60;;
75035;SDS011;64247;51.540;5.854;2023-04-03T05:27:02;7.47;;;3.03;;
75035;SDS011;64247;51.540;5.854;2023-04-03T05:29:04;12.25;;;2.53;;
75035;SDS011;64247;51.540;5.854;2023-04-03T05:31:05;12.38;;;2.47;;
75035;SDS011;64247;51.540;5.854;2023-04-03T05:33:10;7.28;;;2.13;;
75035;SDS011;64247;51.540;5.854;2023-04-03T05:35:17;5.70;;;1.92;;
75035;SDS011;64247;51.540;5.854;2023-04-03T05:37:21;3.85;;;1.63;;
75035;SDS011;64247;51.540;5.854;2023-04-03T05:39:24;2.22;;;1.48;;
75035;SDS011;64247;51.540;5.854;2023-04-03T05:41:25;7.80;;;1.88;;
75035;SDS011;64247;51.540;5.854;2023-04-03T05:43:27;7.07;;;1.40;;
75035;SDS011;64247;51.540;5.854;2023-04-03T05:45:28;1.95;;;1.13;;
75035;SDS011;64247;51.540;5.854;2023-04-03T05:47:31;4.65;;;1.35;;
75035;SDS011;64247;51.540;5.854;2023-04-03T05:49:32;5.82;;;2.40;;
75035;SDS011;64247;51.540;5.854;2023-04-03T05:51:34;3.60;;;1.33;;
75035;SDS011;64247;51.540;5.854;2023-04-03T05:53:45;1.33;;;0.82;;
75035;SDS011;64247;51.540;5.854;2023-04-03T05:55:48;3.78;;;1.30;;
75035;SDS011;64247;51.540;5.854;2023-04-03T05:59:50;3.70;;;1.40;;
75035;SDS011;64247;51.540;5.854;2023-04-03T06:01:52;1.30;;;1.02;;
75035;SDS011;64247;51.540;5.854;2023-04-03T06:03:53;8.80;;;1.95;;
75035;SDS011;64247;51.540;5.854;2023-04-03T06:05:54;12.68;;;1.80;;
75035;SDS011;64247;51.540;5.854;2023-04-03T06:07:55;2.00;;;1.15;;
75035;SDS011;64247;51.540;5.854;2023-04-03T06:09:57;1.30;;;1.05;;
75035;SDS011;64247;51.540;5.854;2023-04-03T06:14:00;1.08;;;1.05;;
75035;SDS011;64247;51.540;5.854;2023-04-03T06:16:04;1.67;;;0.70;;
75035;SDS011;64247;51.540;5.854;2023-04-03T06:18:05;1.02;;;0.90;;
75035;SDS011;64247;51.540;5.854;2023-04-03T06:20:08;0.82;;;0.82;;
75035;SDS011;64247;51.540;5.854;2023-04-03T06:22:10;1.15;;;0.70;;
75035;SDS011;64247;51.540;5.854;2023-04-03T06:24:12;6.22;;;1.55;;
75035;SDS011;64247;51.540;5.854;2023-04-03T06:26:16;3.33;;;1.30;;
75035;SDS011;64247;51.540;5.854;2023-04-03T06:28:17;3.83;;;1.45;;
75035;SDS011;64247;51.540;5.854;2023-04-03T06:30:19;3.83;;;0.90;;
75035;SDS011;64247;51.540;5.854;2023-04-03T06:32:20;0.80;;;0.70;;
75035;SDS011;64247;51.540;5.854;2023-04-03T06:34:21;1.50;;;0.40;;
75035;SDS011;64247;51.540;5.854;2023-04-03T06:36:22;7.43;;;1.15;;
75035;SDS011;64247;51.540;5.854;2023-04-03T06:38:23;0.93;;;0.68;;
75035;SDS011;64247;51.540;5.854;2023-04-03T06:40:24;6.22;;;0.82;;
75035;SDS011;64247;51.540;5.854;2023-04-03T06:42:26;3.67;;;1.13;;
75035;SDS011;64247;51.540;5.854;2023-04-03T06:44:40;2.65;;;1.38;;
75035;SDS011;64247;51.540;5.854;2023-04-03T06:46:41;5.05;;;1.23;;
75035;SDS011;64247;51.540;5.854;2023-04-03T06:48:44;7.32;;;2.17;;
75035;SDS011;64247;51.540;5.854;2023-04-03T06:50:45;1.73;;;1.08;;
75035;SDS011;64247;51.540;5.854;2023-04-03T06:54:47;4.38;;;1.10;;
75035;SDS011;64247;51.540;5.854;2023-04-03T06:58:49;1.92;;;1.02;;
75035;SDS011;64247;51.540;5.854;2023-04-03T07:00:51;1.02;;;0.77;;
75035;SDS011;64247;51.540;5.854;2023-04-03T07:02:52;1.38;;;1.08;;
75035;SDS011;64247;51.540;5.854;2023-04-03T07:04:53;4.53;;;1.35;;
75035;SDS011;64247;51.540;5.854;2023-04-03T07:06:55;2.17;;;1.30;;
75035;SDS011;64247;51.540;5.854;2023-04-03T07:08:56;1.27;;;0.90;;
75035;SDS011;64247;51.540;5.854;2023-04-03T07:10:57;3.72;;;1.02;;
75035;SDS011;64247;51.540;5.854;2023-04-03T07:12:58;6.10;;;1.83;;
75035;SDS011;64247;51.540;5.854;2023-04-03T07:14:59;4.15;;;0.90;;
75035;SDS011;64247;51.540;5.854;2023-04-03T07:17:00;1.13;;;0.60;;
75035;SDS011;64247;51.540;5.854;2023-04-03T07:19:01;1.52;;;0.80;;
75035;SDS011;64247;51.540;5.854;2023-04-03T07:21:03;1.95;;;0.73;;
75035;SDS011;64247;51.540;5.854;2023-04-03T07:23:04;4.45;;;1.17;;
75035;SDS011;64247;51.540;5.854;2023-04-03T07:25:06;5.28;;;1.02;;
75035;SDS011;64247;51.540;5.854;2023-04-03T07:27:08;6.88;;;1.42;;
75035;SDS011;64247;51.540;5.854;2023-04-03T07:29:09;6.80;;;1.13;;
75035;SDS011;64247;51.540;5.854;2023-04-03T07:31:11;8.48;;;1.33;;
75035;SDS011;64247;51.540;5.854;2023-04-03T07:33:17;4.70;;;0.82;;
75035;SDS011;64247;51.540;5.854;2023-04-03T07:35:20;2.10;;;0.93;;
75035;SDS011;64247;51.540;5.854;2023-04-03T07:37:22;1.00;;;0.50;;
75035;SDS011;64247;51.540;5.854;2023-04-03T07:39:23;4.10;;;1.27;;
75035;SDS011;64247;51.540;5.854;2023-04-03T07:41:24;3.50;;;0.98;;
75035;SDS011;64247;51.540;5.854;2023-04-03T07:43:25;0.52;;;0.52;;
75035;SDS011;64247;51.540;5.854;2023-04-03T07:45:26;2.88;;;1.10;;
75035;SDS011;64247;51.540;5.854;2023-04-03T07:47:27;3.15;;;0.60;;
75035;SDS011;64247;51.540;5.854;2023-04-03T07:49:28;2.28;;;1.23;;
75035;SDS011;64247;51.540;5.854;2023-04-03T07:51:29;2.53;;;0.47;;
75035;SDS011;64247;51.540;5.854;2023-04-03T07:53:31;1.90;;;1.00;;
75035;SDS011;64247;51.540;5.854;2023-04-03T07:55:33;5.07;;;2.00;;
75035;SDS011;64247;51.540;5.854;2023-04-03T07:57:37;1.48;;;1.35;;
75035;SDS011;64247;51.540;5.854;2023-04-03T07:59:38;2.28;;;0.77;;
75035;SDS011;64247;51.540;5.854;2023-04-03T08:01:39;4.78;;;1.13;;
75035;SDS011;64247;51.540;5.854;2023-04-03T08:03:40;6.95;;;1.08;;
75035;SDS011;64247;51.540;5.854;2023-04-03T08:05:42;1.05;;;0.85;;
75035;SDS011;64247;51.540;5.854;2023-04-03T08:07:46;1.27;;;0.70;;
75035;SDS011;64247;51.540;5.854;2023-04-03T08:09:48;3.17;;;0.95;;
75035;SDS011;64247;51.540;5.854;2023-04-03T08:11:49;2.42;;;1.00;;
75035;SDS011;64247;51.540;5.854;2023-04-03T08:13:53;5.95;;;1.00;;
75035;SDS011;64247;51.540;5.854;2023-04-03T08:15:54;3.70;;;1.52;;
75035;SDS011;64247;51.540;5.854;2023-04-03T08:17:58;1.25;;;1.10;;
75035;SDS011;64247;51.540;5.854;2023-04-03T08:20:01;0.93;;;0.82;;
75035;SDS011;64247;51.540;5.854;2023-04-03T08:22:04;4.32;;;1.38;;
75035;SDS011;64247;51.540;5.854;2023-04-03T08:24:06;6.57;;;1.70;;
75035;SDS011;64247;51.540;5.854;2023-04-03T08:26:13;3.53;;;1.08;;
75035;SDS011;64247;51.540;5.854;2023-04-03T08:28:16;6.75;;;1.10;;
75035;SDS011;64247;51.540;5.854;2023-04-03T08:30:17;0.82;;;0.57;;
75035;SDS011;64247;51.540;5.854;2023-04-03T08:32:18;1.55;;;0.93;;
75035;SDS011;64247;51.540;5.854;2023-04-03T08:34:19;2.67;;;0.98;;
75035;SDS011;64247;51.540;5.854;2023-04-03T08:36:21;1.40;;;0.70;;
75035;SDS011;64247;51.540;5.854;2023-04-03T08:38:26;1.85;;;0.60;;
75035;SDS011;64247;51.540;5.854;2023-04-03T08:40:27;4.50;;;0.63;;
75035;SDS011;64247;51.540;5.854;2023-04-03T08:48:05;2.53;;;0.70;;
75035;SDS011;64247;51.540;5.854;2023-04-03T08:50:40;2.97;;;0.63;;
75035;SDS011;64247;51.540;5.854;2023-04-03T08:52:54;1.10;;;0.73;;
75035;SDS011;64247;51.540;5.854;2023-04-03T08:55:00;2.75;;;0.75;;
75035;SDS011;64247;51.540;5.854;2023-04-03T08:57:05;1.45;;;0.50;;
75035;SDS011;64247;51.540;5.854;2023-04-03T08:59:12;7.32;;;0.70;;
75035;SDS011;64247;51.540;5.854;2023-04-03T09:01:29;1.90;;;0.35;;
75035;SDS011;64247;51.540;5.854;2023-04-03T09:03:38;3.72;;;1.40;;
75035;SDS011;64247;51.540;5.854;2023-04-03T09:05:46;1.75;;;0.57;;
75035;SDS011;64247;51.540;5.854;2023-04-03T09:08:14;6.28;;;1.00;;
75035;SDS011;64247;51.540;5.854;2023-04-03T09:10:42;5.53;;;1.45;;
75035;SDS011;64247;51.540;5.854;2023-04-03T09:12:48;5.25;;;0.50;;
75035;SDS011;64247;51.540;5.854;2023-04-03T09:15:06;1.70;;;0.60;;
75035;SDS011;64247;51.540;5.854;2023-04-03T09:17:28;2.30;;;0.63;;
75035;SDS011;64247;51.540;5.854;2023-04-03T09:22:51;7.30;;;0.80;;
75035;SDS011;64247;51.540;5.854;2023-04-03T09:27:36;2.15;;;0.90;;
75035;SDS011;64247;51.540;5.854;2023-04-03T09:29:41;3.42;;;0.73;;
75035;SDS011;64247;51.540;5.854;2023-04-03T09:31:46;4.30;;;0.43;;
75035;SDS011;64247;51.540;5.854;2023-04-03T09:33:54;1.48;;;0.68;;
75035;SDS011;64247;51.540;5.854;2023-04-03T09:36:02;2.05;;;0.17;;
75035;SDS011;64247;51.540;5.854;2023-04-03T09:40:33;0.22;;;0.13;;
75035;SDS011;64247;51.540;5.854;2023-04-03T09:43:08;0.85;;;0.32;;
75035;SDS011;64247;51.540;5.854;2023-04-03T09:45:39;0.20;;;0.20;;
75035;SDS011;64247;51.540;5.854;2023-04-03T09:47:40;5.35;;;0.43;;
75035;SDS011;64247;51.540;5.854;2023-04-03T09:49:42;1.30;;;0.28;;
75035;SDS011;64247;51.540;5.854;2023-04-03T09:51:42;2.40;;;0.20;;
75035;SDS011;64247;51.540;5.854;2023-04-03T09:53:44;1.52;;;0.40;;
75035;SDS011;64247;51.540;5.854;2023-04-03T09:55:45;1.38;;;0.40;;
75035;SDS011;64247;51.540;5.854;2023-04-03T09:57:46;1.70;;;0.68;;
75035;SDS011;64247;51.540;5.854;2023-04-03T10:00:00;0.22;;;0.20;;
75035;SDS011;64247;51.540;5.854;2023-04-03T10:04:55;1.77;;;0.30;;
75035;SDS011;64247;51.540;5.854;2023-04-03T10:06:57;1.45;;;0.40;;
75035;SDS011;64247;51.540;5.854;2023-04-03T10:09:05;2.80;;;0.20;;
75035;SDS011;64247;51.540;5.854;2023-04-03T10:11:19;0.38;;;0.30;;
75035;SDS011;64247;51.540;5.854;2023-04-03T10:13:22;0.20;;;0.20;;
75035;SDS011;64247;51.540;5.854;2023-04-03T10:15:23;1.95;;;0.28;;
75035;SDS011;64247;51.540;5.854;2023-04-03T10:17:48;2.15;;;0.70;;
75035;SDS011;64247;51.540;5.854;2023-04-03T10:23:00;0.30;;;0.10;;
75035;SDS011;64247;51.540;5.854;2023-04-03T10:31:17;1.08;;;0.50;;
75035;SDS011;64247;51.540;5.854;2023-04-03T10:36:36;0.40;;;0.30;;
75035;SDS011;64247;51.540;5.854;2023-04-03T10:39:35;0.30;;;0.22;;
75035;SDS011;64247;51.540;5.854;2023-04-03T10:48:07;0.70;;;0.10;;
75035;SDS011;64247;51.540;5.854;2023-04-03T10:50:47;0.10;;;0.10;;
75035;SDS011;64247;51.540;5.854;2023-04-03T10:57:03;1.20;;;0.32;;
75035;SDS011;64247;51.540;5.854;2023-04-03T11:02:25;0.30;;;0.30;;
75035;SDS011;64247;51.540;5.854;2023-04-03T11:04:33;0.20;;;0.20;;
75035;SDS011;64247;51.540;5.854;2023-04-03T11:06:44;0.63;;;0.45;;
75035;SDS011;64247;51.540;5.854;2023-04-03T11:09:05;1.75;;;0.60;;
75035;SDS011;64247;51.540;5.854;2023-04-03T11:11:22;0.30;;;0.13;;
75035;SDS011;64247;51.540;5.854;2023-04-03T11:13:34;0.57;;;0.57;;
75035;SDS011;64247;51.540;5.854;2023-04-03T11:15:43;0.80;;;0.28;;
75035;SDS011;64247;51.540;5.854;2023-04-03T11:17:58;0.65;;;0.20;;
75035;SDS011;64247;51.540;5.854;2023-04-03T11:20:17;2.47;;;0.80;;
75035;SDS011;64247;51.540;5.854;2023-04-03T11:22:31;2.30;;;0.85;;
75035;SDS011;64247;51.540;5.854;2023-04-03T11:24:42;0.50;;;0.50;;
75035;SDS011;64247;51.540;5.854;2023-04-03T11:26:52;0.85;;;0.68;;
75035;SDS011;64247;51.540;5.854;2023-04-03T11:28:58;0.47;;;0.47;;
75035;SDS011;64247;51.540;5.854;2023-04-03T11:34:15;5.40;;;0.68;;
75035;SDS011;64247;51.540;5.854;2023-04-03T11:36:59;1.42;;;0.50;;
75035;SDS011;64247;51.540;5.854;2023-04-03T11:39:25;0.70;;;0.45;;
75035;SDS011;64247;51.540;5.854;2023-04-03T11:41:34;2.25;;;0.35;;
75035;SDS011;64247;51.540;5.854;2023-04-03T11:43:39;1.23;;;0.43;;
75035;SDS011;64247;51.540;5.854;2023-04-03T11:46:03;1.30;;;0.80;;
75035;SDS011;64247;51.540;5.854;2023-04-03T11:50:54;0.85;;;0.30;;
75035;SDS011;64247;51.540;5.854;2023-04-03T11:52:57;0.40;;;0.30;;
75035;SDS011;64247;51.540;5.854;2023-04-03T11:58:31;1.42;;;0.50;;
75035;SDS011;64247;51.540;5.854;2023-04-03T12:00:46;2.95;;;0.68;;
75035;SDS011;64247;51.540;5.854;2023-04-03T12:03:22;1.13;;;0.73;;
75035;SDS011;64247;51.540;5.854;2023-04-03T12:09:25;2.78;;;0.40;;
75035;SDS011;64247;51.540;5.854;2023-04-03T12:11:56;0.43;;;0.30;;
75035;SDS011;64247;51.540;5.854;2023-04-03T12:16:29;1.15;;;0.70;;
75035;SDS011;64247;51.540;5.854;2023-04-03T12:19:00;1.13;;;0.77;;
75035;SDS011;64247;51.540;5.854;2023-04-03T12:22:20;4.30;;;0.50;;
75035;SDS011;64247;51.540;5.854;2023-04-03T12:29:41;0.63;;;0.40;;
75035;SDS011;64247;51.540;5.854;2023-04-03T12:35:05;1.20;;;0.70;;
75035;SDS011;64247;51.540;5.854;2023-04-03T12:40:53;3.05;;;0.60;;
75035;SDS011;64247;51.540;5.854;2023-04-03T12:46:23;4.95;;;0.57;;
75035;SDS011;64247;51.540;5.854;2023-04-03T12:48:54;2.97;;;0.70;;
75035;SDS011;64247;51.540;5.854;2023-04-03T12:51:00;0.95;;;0.35;;
75035;SDS011;64247;51.540;5.854;2023-04-03T12:54:12;0.52;;;0.20;;
75035;SDS011;64247;51.540;5.854;2023-04-03T12:56:32;0.98;;;0.60;;
75035;SDS011;64247;51.540;5.854;2023-04-03T12:58:34;1.08;;;0.40;;
75035;SDS011;64247;51.540;5.854;2023-04-03T13:01:12;4.75;;;0.95;;
75035;SDS011;64247;51.540;5.854;2023-04-03T13:03:22;2.08;;;0.68;;
75035;SDS011;64247;51.540;5.854;2023-04-03T13:05:29;0.43;;;0.25;;
75035;SDS011;64247;51.540;5.854;2023-04-03T13:07:36;2.15;;;0.70;;
75035;SDS011;64247;51.540;5.854;2023-04-03T13:09:41;0.45;;;0.30;;
75035;SDS011;64247;51.540;5.854;2023-04-03T13:11:41;0.63;;;0.45;;
75035;SDS011;64247;51.540;5.854;2023-04-03T13:14:01;7.35;;;1.00;;
75035;SDS011;64247;51.540;5.854;2023-04-03T13:16:09;4.05;;;0.75;;
75035;SDS011;64247;51.540;5.854;2023-04-03T13:18:32;0.60;;;0.55;;
75035;SDS011;64247;51.540;5.854;2023-04-03T13:20:35;1.05;;;0.50;;
75035;SDS011;64247;51.540;5.854;2023-04-03T13:22:39;1.15;;;0.52;;
75035;SDS011;64247;51.540;5.854;2023-04-03T13:24:54;1.20;;;0.65;;
75035;SDS011;64247;51.540;5.854;2023-04-03T13:26:59;3.08;;;0.63;;
75035;SDS011;64247;51.540;5.854;2023-04-03T13:29:04;1.83;;;0.65;;
75035;SDS011;64247;51.540;5.854;2023-04-03T13:31:25;0.70;;;0.30;;
75035;SDS011;64247;51.540;5.854;2023-04-03T13:33:32;2.30;;;0.50;;
75035;SDS011;64247;51.540;5.854;2023-04-03T13:35:39;2.17;;;0.68;;
75035;SDS011;64247;51.540;5.854;2023-04-03T13:37:52;1.98;;;0.68;;
75035;SDS011;64247;51.540;5.854;2023-04-03T13:39:57;1.98;;;0.73;;
75035;SDS011;64247;51.540;5.854;2023-04-03T13:42:22;1.08;;;0.70;;
75035;SDS011;64247;51.540;5.854;2023-04-03T13:44:34;0.50;;;0.47;;
75035;SDS011;64247;51.540;5.854;2023-04-03T13:46:37;1.17;;;0.40;;
75035;SDS011;64247;51.540;5.854;2023-04-03T13:48:41;0.98;;;0.65;;
75035;SDS011;64247;51.540;5.854;2023-04-03T13:50:53;1.73;;;0.60;;
75035;SDS011;64247;51.540;5.854;2023-04-03T13:53:41;3.35;;;0.70;;
75035;SDS011;64247;51.540;5.854;2023-04-03T13:58:21;3.08;;;0.63;;
75035;SDS011;64247;51.540;5.854;2023-04-03T14:00:28;1.30;;;0.70;;
75035;SDS011;64247;51.540;5.854;2023-04-03T14:03:27;0.50;;;0.50;;
75035;SDS011;64247;51.540;5.854;2023-04-03T14:05:41;0.93;;;0.63;;
75035;SDS011;64247;51.540;5.854;2023-04-03T14:07:42;1.95;;;0.60;;
75035;SDS011;64247;51.540;5.854;2023-04-03T14:09:43;15.30;;;1.23;;
75035;SDS011;64247;51.540;5.854;2023-04-03T14:11:44;1.75;;;0.90;;
75035;SDS011;64247;51.540;5.854;2023-04-03T14:13:48;0.98;;;0.50;;
75035;SDS011;64247;51.540;5.854;2023-04-03T14:15:50;4.18;;;0.70;;
75035;SDS011;64247;51.540;5.854;2023-04-03T14:17:51;2.10;;;0.52;;
75035;SDS011;64247;51.540;5.854;2023-04-03T14:19:54;1.08;;;0.75;;
75035;SDS011;64247;51.540;5.854;2023-04-03T14:21:58;1.88;;;0.60;;
75035;SDS011;64247;51.540;5.854;2023-04-03T14:24:01;0.70;;;0.55;;
75035;SDS011;64247;51.540;5.854;2023-04-03T14:26:04;1.77;;;0.98;;
75035;SDS011;64247;51.540;5.854;2023-04-03T14:28:19;2.65;;;0.75;;
75035;SDS011;64247;51.540;5.854;2023-04-03T14:30:24;5.18;;;1.30;;